Campo, Colorado
Current Conditions -  °F | °C
As of 8:55 AM on Saturday 22 Nov 2014 (Local Time) from KCAO Reporting Station
Clear Clear  
Wind Chill: 51°   Ceiling: Unl
Heat Index: 51°   Visibility: 10mi
Dew Point: 20°   Wind: 12mph
Humidity: 29%   Direction: 240°WSW
Pressure: 29.91"   Gusts: NA
Location:  37.11°N, 102.58°W
Report Text: KCAO 221555Z AUTO 24010KT 10SM CLR 11/M07 A2991 RMK AO2 SLP107 T01061067
Loading
Personal Weather Stations






























Interactive Weather Map New forecast layout! Learn more

10-Day Weather Forecast

Advertisements
Track Severe Weather on mobile